WXM80 ListenWXM80 Stop

You find our weather info also at:

UK Metoffice

WeatherCloud

Weather Underground

Northeastern Weather Network

AWEKAS

Citizen Weather Observer Program (CWOP)

HAMweather, WeatherForYou, PWS Weather


Weather Underground History page Text

Daily Summary for October 16, 2016 Units:  English    Metric   Both
« Previous Day
Next Day »
Daily Weekly Monthly Yearly Custom
  High: Low: Average:
Temperature: 71.8 °F 48.2 °F 59.7 °F
Dew Point: 59.7 °F 46.1 °F 54.3 °F
Humidity: 98 % 59 % 84 %
Wind Speed: 8.8 mph 0.0 mph 1.9 mph
Wind Gust: 16.1 mph - -
Wind:- - SW
Pressure: 30.28 in 29.97 in -
Precipitation: 0.00 in    
Historical Graphs
 
 
Tabular Data for October 16, 2016
Time Temperature Dew Point Pressure Wind Wind Speed Wind Gust Humidity Rainfall Rate (Hourly)
00:02 49.2 °F 46.7 °F 30.28 in Calm     91 % 0.00 in
00:07 49.2 °F 47.0 °F 30.28 in Calm     92 % 0.00 in
00:12 49.3 °F 47.1 °F 30.28 in Calm     92 % 0.00 in
00:17 49.4 °F 47.2 °F 30.28 in Calm     92 % 0.00 in
00:22 49.4 °F 47.2 °F 30.28 in Calm     92 % 0.00 in
00:27 49.4 °F 47.2 °F 30.28 in Calm     92 % 0.00 in
00:32 49.4 °F 47.2 °F 30.28 in Calm     92 % 0.00 in
00:37 49.4 °F 47.2 °F 30.28 in Calm     92 % 0.00 in
00:48 49.4 °F 47.2 °F 30.28 in Calm     92 % 0.00 in
00:53 49.4 °F 47.2 °F 30.28 in Calm     92 % 0.00 in
00:58 49.4 °F 47.2 °F 30.28 in Calm     92 % 0.00 in
01:03 49.4 °F 47.2 °F 30.28 in Calm     92 % 0.00 in
01:08 49.4 °F 47.2 °F 30.28 in Calm     92 % 0.00 in
01:13 49.3 °F 47.1 °F 30.28 in Calm     92 % 0.00 in
01:18 49.3 °F 47.1 °F 30.28 in Calm     92 % 0.00 in
01:23 49.2 °F 47.0 °F 30.28 in West 1.7 mph 4.0 mph 92 % 0.00 in
01:28 49.3 °F 47.4 °F 30.28 in WSW 1.1 mph 4.6 mph 93 % 0.00 in
01:34 49.6 °F 47.7 °F 30.28 in WSW 0.4 mph 2.3 mph 93 % 0.00 in
01:39 49.8 °F 48.1 °F 30.28 in Calm   2.3 mph 94 % 0.00 in
01:44 49.8 °F 48.1 °F 30.28 in Calm     94 % 0.00 in
01:49 49.9 °F 48.2 °F 30.28 in Calm     94 % 0.00 in
01:54 49.9 °F 48.2 °F 30.28 in Calm     94 % 0.00 in
01:59 49.9 °F 48.2 °F 30.27 in Calm     94 % 0.00 in
02:04 49.9 °F 48.2 °F 30.27 in Calm     94 % 0.00 in
02:09 49.8 °F 48.1 °F 30.27 in Calm     94 % 0.00 in
02:14 49.7 °F 47.8 °F 30.27 in Calm     93 % 0.00 in
02:19 49.6 °F 47.7 °F 30.27 in WSW 0.6 mph 1.0 mph 93 % 0.00 in
02:25 49.5 °F 47.6 °F 30.27 in Calm     93 % 0.00 in
02:30 49.3 °F 47.4 °F 30.27 in Calm     93 % 0.00 in
02:35 49.2 °F 47.3 °F 30.27 in Calm   1.2 mph 93 % 0.00 in
02:40 49.1 °F 46.9 °F 30.26 in Calm     92 % 0.00 in
02:45 49.0 °F 46.8 °F 30.26 in Calm     92 % 0.00 in
02:50 48.8 °F 46.6 °F 30.26 in Calm     92 % 0.00 in
02:55 48.7 °F 46.5 °F 30.26 in Calm     92 % 0.00 in
03:00 48.6 °F 46.4 °F 30.26 in Calm     92 % 0.00 in
03:05 48.6 °F 46.4 °F 30.26 in Calm     92 % 0.00 in
03:10 48.5 °F 46.3 °F 30.25 in Calm     92 % 0.00 in
03:16 48.4 °F 46.2 °F 30.25 in Calm   2.0 mph 92 % 0.00 in
03:21 48.4 °F 46.2 °F 30.25 in Calm     92 % 0.00 in
03:26 48.3 °F 46.1 °F 30.25 in WSW 0.5 mph 1.2 mph 92 % 0.00 in
03:31 48.3 °F 46.1 °F 30.25 in Calm     92 % 0.00 in
03:36 48.3 °F 46.4 °F 30.25 in Calm     93 % 0.00 in
03:41 48.3 °F 46.4 °F 30.24 in Calm     93 % 0.00 in
03:46 48.2 °F 46.3 °F 30.24 in Calm   1.0 mph 93 % 0.00 in
03:51 48.2 °F 46.3 °F 30.24 in Calm     93 % 0.00 in
03:56 48.3 °F 46.4 °F 30.24 in Calm     93 % 0.00 in
04:06 48.3 °F 46.7 °F 30.23 in Calm     94 % 0.00 in
04:11 48.4 °F 46.8 °F 30.23 in Calm     94 % 0.00 in
04:16 48.5 °F 46.9 °F 30.23 in Calm   1.2 mph 94 % 0.00 in
04:21 48.6 °F 47.0 °F 30.23 in WSW 0.1 mph 1.0 mph 94 % 0.00 in
04:31 48.7 °F 47.3 °F 30.22 in Calm     95 % 0.00 in
04:36 48.8 °F 47.4 °F 30.23 in WSW 0.2 mph 1.0 mph 95 % 0.00 in
04:41 48.9 °F 47.5 °F 30.22 in Calm     95 % 0.00 in
04:47 49.1 °F 47.7 °F 30.23 in Calm     95 % 0.00 in
04:52 49.2 °F 47.8 °F 30.23 in Calm     95 % 0.00 in
04:57 49.3 °F 48.2 °F 30.22 in Calm   1.2 mph 96 % 0.00 in
05:02 49.4 °F 48.3 °F 30.22 in Calm     96 % 0.00 in
05:07 49.4 °F 48.3 °F 30.22 in Calm     96 % 0.00 in
05:12 49.4 °F 48.3 °F 30.22 in Calm     96 % 0.00 in
05:17 49.5 °F 48.4 °F 30.22 in Calm     96 % 0.00 in
05:22 49.5 °F 48.4 °F 30.22 in Calm     96 % 0.00 in
05:27 49.5 °F 48.4 °F 30.22 in Calm     96 % 0.00 in
05:32 49.5 °F 48.1 °F 30.22 in Calm     95 % 0.00 in
05:38 49.4 °F 48.0 °F 30.22 in Calm     95 % 0.00 in
05:43 49.4 °F 48.0 °F 30.22 in Calm     95 % 0.00 in
05:48 49.4 °F 48.0 °F 30.22 in Calm     95 % 0.00 in
05:53 49.4 °F 48.0 °F 30.22 in Calm     95 % 0.00 in
05:58 49.4 °F 48.0 °F 30.22 in Calm     95 % 0.00 in
06:03 49.4 °F 48.0 °F 30.22 in Calm     95 % 0.00 in
06:08 49.4 °F 48.0 °F 30.22 in Calm     95 % 0.00 in
06:13 49.3 °F 47.9 °F 30.22 in Calm     95 % 0.00 in
06:18 49.3 °F 48.2 °F 30.22 in Calm     96 % 0.00 in
06:23 49.3 °F 48.2 °F 30.22 in WSW 0.7 mph 1.2 mph 96 % 0.00 in
06:29 49.3 °F 48.2 °F 30.22 in WSW 0.3 mph 1.2 mph 96 % 0.00 in
06:34 49.4 °F 48.3 °F 30.22 in Calm   2.3 mph 96 % 0.00 in
06:39 49.4 °F 48.3 °F 30.22 in Calm     96 % 0.00 in
06:44 49.4 °F 48.3 °F 30.22 in Calm     96 % 0.00 in
06:54 49.4 °F 48.3 °F 30.22 in Calm     96 % 0.00 in
07:04 49.2 °F 48.1 °F 30.21 in Calm     96 % 0.00 in
07:09 49.0 °F 47.6 °F 30.21 in Calm     95 % 0.00 in
07:14 48.8 °F 47.4 °F 30.21 in Calm     95 % 0.00 in
07:20 48.7 °F 47.3 °F 30.21 in Calm     95 % 0.00 in
07:25 48.7 °F 47.3 °F 30.21 in WSW 0.1 mph 1.2 mph 95 % 0.00 in
07:30 48.7 °F 47.3 °F 30.21 in WSW 0.4 mph 1.2 mph 95 % 0.00 in
07:35 49.0 °F 47.9 °F 30.21 in Calm   1.2 mph 96 % 0.00 in
07:40 49.4 °F 48.3 °F 30.21 in SW 0.3 mph 1.2 mph 96 % 0.00 in
07:45 49.9 °F 49.1 °F 30.20 in SW 1.6 mph 4.6 mph 97 % 0.00 in
07:55 50.9 °F 50.1 °F 30.20 in SW 0.5 mph 6.9 mph 97 % 0.00 in
08:00 51.5 °F 50.7 °F 30.20 in Calm   3.5 mph 97 % 0.00 in
08:05 51.9 °F 51.1 °F 30.21 in WSW 2.0 mph 3.5 mph 97 % 0.00 in
08:11 52.2 °F 51.4 °F 30.21 in SW 1.0 mph 4.0 mph 97 % 0.00 in
08:16 52.5 °F 51.7 °F 30.20 in Calm   3.0 mph 97 % 0.00 in
08:21 52.7 °F 51.9 °F 30.20 in Calm   2.0 mph 97 % 0.00 in
08:26 52.9 °F 52.1 °F 30.20 in WSW 2.0 mph 6.0 mph 97 % 0.00 in
08:30 53.2 °F 52.4 °F 30.20 in WSW 2.0 mph 3.5 mph 97 % 0.00 in
08:36 53.4 °F 52.8 °F 30.20 in SW 2.0 mph 6.0 mph 98 % 0.00 in
08:41 53.7 °F 53.1 °F 30.20 in WSW 5.0 mph 8.0 mph 98 % 0.00 in
08:46 54.0 °F 53.1 °F 30.20 in WSW 1.0 mph 7.0 mph 97 % 0.00 in
08:51 54.2 °F 53.6 °F 30.20 in SW 2.0 mph 8.0 mph 98 % 0.00 in
08:56 54.4 °F 53.8 °F 30.20 in Calm   5.0 mph 98 % 0.00 in
09:01 54.7 °F 54.1 °F 30.20 in WSW 1.4 mph 4.0 mph 98 % 0.00 in
09:06 55.0 °F 54.4 °F 30.20 in SW 3.3 mph 5.0 mph 98 % 0.00 in
09:11 55.1 °F 54.5 °F 30.19 in WSW 3.5 mph 5.8 mph 98 % 0.00 in
09:16 55.3 °F 54.7 °F 30.19 in WSW 2.2 mph 7.0 mph 98 % 0.00 in
09:21 55.5 °F 54.9 °F 30.18 in WSW 1.6 mph 6.9 mph 98 % 0.00 in
09:26 55.8 °F 55.2 °F 30.18 in WSW 3.5 mph 10.4 mph 98 % 0.00 in
09:31 56.1 °F 55.5 °F 30.18 in SSW 4.8 mph 10.4 mph 98 % 0.00 in
09:36 56.5 °F 55.7 °F 30.18 in SSW 3.5 mph 10.4 mph 97 % 0.00 in
09:41 56.8 °F 56.0 °F 30.18 in SW 1.9 mph 5.8 mph 97 % 0.00 in
09:47 57.1 °F 56.3 °F 30.18 in WSW 5.1 mph 11.5 mph 97 % 0.00 in
09:52 57.5 °F 56.1 °F 30.18 in West 1.7 mph 5.8 mph 95 % 0.00 in
09:57 58.1 °F 56.4 °F 30.18 in SSW 3.4 mph 8.1 mph 94 % 0.00 in
10:07 59.3 °F 56.7 °F 30.18 in WSW 6.0 mph 9.2 mph 91 % 0.00 in
10:12 60.0 °F 56.4 °F 30.18 in WSW 4.7 mph 10.4 mph 88 % 0.00 in
10:17 60.5 °F 56.6 °F 30.18 in SSW 4.6 mph 7.0 mph 87 % 0.00 in
10:22 61.0 °F 56.5 °F 30.18 in SW 4.6 mph 8.0 mph 85 % 0.00 in
10:27 61.4 °F 56.2 °F 30.18 in SW 3.6 mph 6.9 mph 83 % 0.00 in
10:32 61.8 °F 56.6 °F 30.18 in West 3.6 mph 9.2 mph 83 % 0.00 in
10:38 62.1 °F 56.5 °F 30.18 in SW 8.8 mph 11.5 mph 82 % 0.00 in
10:43 62.4 °F 56.5 °F 30.18 in SW 3.4 mph 11.5 mph 81 % 0.00 in
10:48 62.7 °F 56.4 °F 30.17 in WSW 4.7 mph 8.1 mph 80 % 0.00 in
10:53 63.0 °F 56.7 °F 30.17 in West 2.5 mph 5.8 mph 80 % 0.00 in
10:58 63.3 °F 56.3 °F 30.16 in WNW 8.2 mph 12.7 mph 78 % 0.00 in
11:03 63.6 °F 56.3 °F 30.16 in WSW 3.6 mph 9.2 mph 77 % 0.00 in
11:08 63.9 °F 56.2 °F 30.16 in SSW 6.5 mph 11.5 mph 76 % 0.00 in
11:13 64.1 °F 56.0 °F 30.16 in SSW 2.6 mph 4.6 mph 75 % 0.00 in
11:18 64.5 °F 56.4 °F 30.16 in SSW 0.7 mph 4.6 mph 75 % 0.00 in
11:23 65.1 °F 57.0 °F 30.16 in SSW 5.0 mph 8.1 mph 75 % 0.00 in
11:29 65.8 °F 57.3 °F 30.16 in SW 1.3 mph 8.1 mph 74 % 0.00 in
11:34 66.4 °F 56.7 °F 30.16 in SW 0.9 mph 6.9 mph 71 % 0.00 in
11:39 66.9 °F 56.8 °F 30.15 in West 2.5 mph 4.6 mph 70 % 0.00 in
11:44 67.6 °F 57.9 °F 30.15 in SSW 3.9 mph 8.1 mph 71 % 0.00 in
11:49 68.1 °F 57.5 °F 30.15 in SSW 3.6 mph 6.9 mph 69 % 0.00 in
11:54 68.8 °F 58.2 °F 30.15 in SW 2.0 mph 4.6 mph 69 % 0.00 in
11:59 69.3 °F 58.3 °F 30.14 in SSW 3.8 mph 6.9 mph 68 % 0.00 in
12:04 69.8 °F 57.9 °F 30.14 in SSW 5.7 mph 11.5 mph 66 % 0.00 in
12:09 70.0 °F 57.3 °F 30.14 in WSW 6.4 mph 10.4 mph 64 % 0.00 in
12:14 70.1 °F 57.4 °F 30.14 in South 1.7 mph 9.2 mph 64 % 0.00 in
12:20 70.4 °F 57.6 °F 30.14 in SW 7.8 mph 16.1 mph 64 % 0.00 in
12:25 70.3 °F 56.7 °F 30.13 in SW 7.1 mph 16.1 mph 62 % 0.00 in
12:30 70.1 °F 57.8 °F 30.13 in SW 3.8 mph 6.0 mph 65 % 0.00 in
12:35 70.1 °F 57.4 °F 30.13 in SW 1.4 mph 3.5 mph 64 % 0.00 in
12:40 70.3 °F 57.1 °F 30.13 in WSW 3.8 mph 8.1 mph 63 % 0.00 in
12:45 70.4 °F 56.8 °F 30.12 in SW 6.3 mph 10.0 mph 62 % 0.00 in
12:50 70.5 °F 56.9 °F 30.12 in SW 3.3 mph 3.5 mph 62 % 0.00 in
12:55 70.7 °F 57.0 °F 30.11 in SSW 5.1 mph 6.0 mph 62 % 0.00 in
13:00 70.8 °F 56.7 °F 30.11 in SW 4.0 mph 8.0 mph 61 % 0.00 in
13:05 71.1 °F 57.4 °F 30.11 in SW 2.7 mph 3.5 mph 62 % 0.00 in
13:11 71.2 °F 57.1 °F 30.10 in SW 2.0 mph 7.0 mph 61 % 0.00 in
13:16 71.4 °F 57.2 °F 30.10 in SW 5.0 mph 9.0 mph 61 % 0.00 in
13:21 71.4 °F 56.3 °F 30.09 in SSW 1.0 mph 12.0 mph 59 % 0.00 in
13:26 71.5 °F 56.9 °F 30.09 in SSW 5.0 mph 10.0 mph 60 % 0.00 in
13:31 71.7 °F 58.0 °F 30.09 in SE 0.5 mph 3.5 mph 62 % 0.00 in
13:36 71.8 °F 56.7 °F 30.09 in SSW 3.0 mph 13.0 mph 59 % 0.00 in
13:41 71.6 °F 56.5 °F 30.08 in SW 2.0 mph 12.0 mph 59 % 0.00 in
13:46 71.4 °F 56.8 °F 30.08 in WSW 5.1 mph 11.5 mph 60 % 0.00 in
13:51 71.0 °F 56.0 °F 30.08 in WSW 2.0 mph 12.0 mph 59 % 0.00 in
14:01 70.6 °F 56.5 °F 30.07 in WSW 3.0 mph 8.0 mph 61 % 0.00 in
14:06 70.5 °F 56.4 °F 30.07 in WSW 6.0 mph 14.0 mph 61 % 0.00 in
14:11 70.5 °F 57.3 °F 30.07 in WSW 2.0 mph 12.0 mph 63 % 0.00 in
14:16 70.5 °F 57.3 °F 30.07 in ESE 2.9 mph 4.6 mph 63 % 0.00 in
14:21 70.6 °F 57.0 °F 30.07 in WSW 5.0 mph 10.0 mph 62 % 0.00 in
14:26 70.6 °F 56.5 °F 30.07 in SW 5.0 mph 10.0 mph 61 % 0.00 in
14:31 70.6 °F 56.9 °F 30.06 in SW 3.0 mph 7.0 mph 62 % 0.00 in
14:36 70.7 °F 57.5 °F 30.06 in SW 3.0 mph 7.0 mph 63 % 0.00 in
14:41 70.9 °F 58.1 °F 30.05 in SW 2.0 mph 7.0 mph 64 % 0.00 in
14:46 71.0 °F 56.4 °F 30.05 in SW 5.9 mph 9.0 mph 60 % 0.00 in
14:51 71.1 °F 57.4 °F 30.05 in SW 5.0 mph 13.0 mph 62 % 0.00 in
14:56 71.2 °F 57.1 °F 30.05 in SW 1.0 mph 10.0 mph 61 % 0.00 in
15:01 71.2 °F 58.0 °F 30.05 in SSW 0.3 mph 4.6 mph 63 % 0.00 in
15:06 71.2 °F 57.1 °F 30.05 in SW 3.0 mph 8.0 mph 61 % 0.00 in
15:11 71.1 °F 57.4 °F 30.05 in Calm   4.0 mph 62 % 0.00 in
15:16 71.0 °F 57.3 °F 30.04 in SE 2.9 mph 4.0 mph 62 % 0.00 in
15:21 71.0 °F 57.3 °F 30.04 in SW 3.0 mph 7.0 mph 62 % 0.00 in
15:26 70.9 °F 56.8 °F 30.05 in WSW 2.0 mph 5.0 mph 61 % 0.00 in
15:31 70.8 °F 57.2 °F 30.04 in SW 3.0 mph 9.0 mph 62 % 0.00 in
15:36 70.7 °F 57.5 °F 30.04 in SSW 5.0 mph 8.0 mph 63 % 0.00 in
15:41 70.6 °F 57.8 °F 30.04 in SW 1.0 mph 9.0 mph 64 % 0.00 in
15:46 70.4 °F 57.2 °F 30.03 in SW 3.0 mph 6.0 mph 63 % 0.00 in
15:51 70.2 °F 56.6 °F 30.04 in SW 5.0 mph 9.0 mph 62 % 0.00 in
15:56 70.1 °F 57.3 °F 30.04 in SW 2.0 mph 7.0 mph 64 % 0.00 in
16:01 69.9 °F 57.2 °F 30.03 in West 1.1 mph 5.8 mph 64 % 0.00 in
16:06 69.7 °F 57.0 °F 30.03 in West 7.6 mph 11.5 mph 64 % 0.00 in
16:11 69.5 °F 57.2 °F 30.03 in SSW 3.4 mph 5.8 mph 65 % 0.00 in
16:16 69.4 °F 57.1 °F 30.03 in SW 3.7 mph 8.1 mph 65 % 0.00 in
16:21 69.3 °F 57.5 °F 30.02 in SSW 0.9 mph 2.3 mph 66 % 0.00 in
16:26 69.2 °F 57.8 °F 30.02 in Calm   2.3 mph 67 % 0.00 in
16:31 69.1 °F 58.1 °F 30.02 in SW 0.6 mph 2.3 mph 68 % 0.00 in
16:36 68.9 °F 58.3 °F 30.01 in SE 0.1 mph 2.3 mph 69 % 0.00 in
16:41 68.7 °F 58.5 °F 30.00 in South 1.2 mph 3.5 mph 70 % 0.00 in
16:46 68.5 °F 58.7 °F 30.00 in South 1.3 mph 3.5 mph 71 % 0.00 in
16:52 68.3 °F 58.5 °F 30.00 in South 1.1 mph 2.3 mph 71 % 0.00 in
16:57 68.1 °F 58.3 °F 30.00 in South 0.8 mph 3.5 mph 71 % 0.00 in
17:02 67.8 °F 58.4 °F 30.00 in SSW 1.7 mph 3.5 mph 72 % 0.00 in
17:07 67.6 °F 58.2 °F 30.00 in West 0.6 mph 2.3 mph 72 % 0.00 in
17:12 67.4 °F 58.4 °F 30.00 in SW 2.4 mph 3.5 mph 73 % 0.00 in
17:17 67.2 °F 58.2 °F 30.00 in SW 2.7 mph 3.5 mph 73 % 0.00 in
17:22 66.9 °F 58.3 °F 30.00 in SSE 0.7 mph 4.6 mph 74 % 0.00 in
17:27 66.7 °F 58.1 °F 30.00 in SE 0.2 mph 3.5 mph 74 % 0.00 in
17:32 66.5 °F 58.3 °F 30.00 in SE 0.2 mph 1.2 mph 75 % 0.00 in
17:37 66.3 °F 58.1 °F 30.00 in West 0.2 mph 1.2 mph 75 % 0.00 in
17:43 66.2 °F 58.4 °F 30.00 in WSW 0.2 mph 3.5 mph 76 % 0.00 in
17:48 65.9 °F 58.5 °F 30.00 in SSE 0.3 mph 1.2 mph 77 % 0.00 in
17:53 65.6 °F 58.2 °F 29.99 in ESE 1.1 mph 3.5 mph 77 % 0.00 in
17:58 65.4 °F 58.4 °F 29.99 in SE 0.7 mph 3.0 mph 78 % 0.00 in
18:03 65.2 °F 58.2 °F 29.99 in SSE 0.7 mph 1.2 mph 78 % 0.00 in
18:08 64.9 °F 58.2 °F 29.99 in SE 0.8 mph 2.3 mph 79 % 0.00 in
18:13 64.7 °F 58.4 °F 29.99 in ESE 1.2 mph 3.5 mph 80 % 0.00 in
18:18 64.5 °F 58.5 °F 29.99 in SW 0.2 mph 2.3 mph 81 % 0.00 in
18:23 64.4 °F 58.4 °F 29.99 in SW 1.0 mph 3.5 mph 81 % 0.00 in
18:28 64.2 °F 58.2 °F 29.99 in NW 0.9 mph 1.2 mph 81 % 0.00 in
18:34 64.1 °F 58.5 °F 29.99 in SW 0.4 mph 3.0 mph 82 % 0.00 in
18:39 63.9 °F 58.3 °F 29.99 in South 1.9 mph 3.5 mph 82 % 0.00 in
18:44 63.8 °F 58.5 °F 29.99 in SSE 0.5 mph 2.3 mph 83 % 0.00 in
18:49 63.6 °F 58.3 °F 29.99 in SW 0.3 mph 2.3 mph 83 % 0.00 in
18:54 63.5 °F 58.6 °F 29.99 in West 0.3 mph 2.3 mph 84 % 0.00 in
18:59 63.3 °F 58.4 °F 29.99 in SW 1.3 mph 2.3 mph 84 % 0.00 in
19:04 63.2 °F 58.6 °F 29.99 in SW 1.3 mph 3.5 mph 85 % 0.00 in
19:09 63.1 °F 58.5 °F 29.99 in WSW 1.5 mph 4.6 mph 85 % 0.00 in
19:14 63.0 °F 58.7 °F 29.99 in WSW 1.1 mph 3.5 mph 86 % 0.00 in
19:19 62.9 °F 58.6 °F 29.99 in SSW 1.0 mph 3.5 mph 86 % 0.00 in
19:24 62.8 °F 58.9 °F 29.99 in SW 2.6 mph 3.5 mph 87 % 0.00 in
19:29 62.7 °F 58.8 °F 29.99 in SW 2.3 mph 3.5 mph 87 % 0.00 in
19:34 62.7 °F 59.1 °F 29.99 in SSW 3.2 mph 3.5 mph 88 % 0.00 in
19:40 62.6 °F 59.0 °F 29.99 in SW 2.3 mph 5.8 mph 88 % 0.00 in
19:45 62.5 °F 59.2 °F 29.99 in SW 0.2 mph 2.3 mph 89 % 0.00 in
19:50 62.5 °F 59.2 °F 29.99 in SW 0.3 mph 2.3 mph 89 % 0.00 in
19:55 62.5 °F 59.2 °F 29.99 in SW 1.6 mph 3.5 mph 89 % 0.00 in
20:00 62.4 °F 59.1 °F 29.99 in SSW 2.4 mph 3.5 mph 89 % 0.00 in
20:05 62.4 °F 59.1 °F 29.99 in WSW 3.0 mph 10.0 mph 89 % 0.00 in
20:10 62.4 °F 59.4 °F 29.99 in SW 3.3 mph 6.9 mph 90 % 0.00 in
20:15 62.3 °F 59.3 °F 29.98 in SSW 3.3 mph 4.6 mph 90 % 0.00 in
20:20 62.3 °F 59.3 °F 29.98 in SW 3.3 mph 9.2 mph 90 % 0.00 in
20:25 62.3 °F 59.3 °F 29.98 in SW 2.0 mph 5.8 mph 90 % 0.00 in
20:30 62.3 °F 59.3 °F 29.98 in SW 2.0 mph 7.0 mph 90 % 0.00 in
20:35 62.3 °F 59.3 °F 29.98 in Calm   5.0 mph 90 % 0.00 in
20:40 62.3 °F 59.3 °F 29.97 in WSW 2.1 mph 3.5 mph 90 % 0.00 in
20:45 62.3 °F 59.3 °F 29.97 in SW 1.0 mph 6.0 mph 90 % 0.00 in
20:50 62.3 °F 59.3 °F 29.97 in SW 2.0 mph 5.0 mph 90 % 0.00 in
20:55 62.3 °F 59.3 °F 29.97 in SSW 2.5 mph 4.0 mph 90 % 0.00 in
21:01 62.3 °F 59.3 °F 29.97 in SW 1.9 mph 4.6 mph 90 % 0.00 in
21:06 62.3 °F 59.3 °F 29.97 in SW 3.1 mph 5.8 mph 90 % 0.00 in
21:11 62.3 °F 59.3 °F 29.97 in SSW 3.9 mph 6.9 mph 90 % 0.00 in
21:16 62.4 °F 59.1 °F 29.97 in SSW 3.4 mph 6.0 mph 89 % 0.00 in
21:21 62.5 °F 59.2 °F 29.97 in SW 3.6 mph 6.0 mph 89 % 0.00 in
21:26 62.5 °F 59.2 °F 29.97 in SW 2.8 mph 5.8 mph 89 % 0.00 in
21:31 62.6 °F 59.3 °F 29.97 in WSW 1.7 mph 4.6 mph 89 % 0.00 in
21:36 62.7 °F 59.4 °F 29.97 in WSW 3.8 mph 10.0 mph 89 % 0.00 in
21:41 62.8 °F 59.5 °F 29.98 in SW 5.5 mph 8.0 mph 89 % 0.00 in
21:46 62.9 °F 59.3 °F 29.98 in SW 1.9 mph 4.6 mph 88 % 0.00 in
21:57 63.0 °F 59.4 °F 29.97 in SW 1.2 mph 4.6 mph 88 % 0.00 in
22:02 63.0 °F 59.4 °F 29.98 in SSW 5.6 mph 7.0 mph 88 % 0.00 in
22:07 63.1 °F 59.5 °F 29.98 in West 2.8 mph 3.5 mph 88 % 0.00 in
22:12 63.2 °F 59.6 °F 29.98 in SW 4.3 mph 9.2 mph 88 % 0.00 in
22:17 63.2 °F 59.6 °F 29.98 in SSW 5.2 mph 10.0 mph 88 % 0.00 in
22:22 63.4 °F 59.5 °F 29.98 in SSW 4.0 mph 7.0 mph 87 % 0.00 in
22:27 63.4 °F 59.5 °F 29.98 in SW 4.9 mph 10.4 mph 87 % 0.00 in
22:32 63.5 °F 59.6 °F 29.97 in SW 2.5 mph 6.9 mph 87 % 0.00 in
22:37 63.6 °F 59.7 °F 29.98 in SSW 3.1 mph 4.6 mph 87 % 0.00 in
22:42 63.6 °F 59.7 °F 29.98 in WSW 6.0 mph 8.1 mph 87 % 0.00 in
22:48 63.6 °F 59.7 °F 29.97 in SW 3.3 mph 5.8 mph 87 % 0.00 in
22:53 63.7 °F 59.4 °F 29.98 in SSW 3.5 mph 7.0 mph 86 % 0.00 in
22:58 63.7 °F 59.4 °F 29.98 in SW 3.3 mph 5.8 mph 86 % 0.00 in
23:03 63.8 °F 59.5 °F 29.98 in WSW 4.2 mph 8.1 mph 86 % 0.00 in
23:08 63.8 °F 59.5 °F 29.98 in SSW 4.6 mph 7.0 mph 86 % 0.00 in
23:13 63.9 °F 59.6 °F 29.98 in SW 4.2 mph 9.2 mph 86 % 0.00 in
23:18 63.9 °F 59.6 °F 29.98 in WSW 5.1 mph 6.9 mph 86 % 0.00 in
23:23 63.9 °F 59.6 °F 29.98 in SW 3.9 mph 6.9 mph 86 % 0.00 in
23:28 63.9 °F 59.6 °F 29.97 in SW 4.3 mph 6.9 mph 86 % 0.00 in
23:33 63.9 °F 59.6 °F 29.97 in SW 4.2 mph 9.2 mph 86 % 0.00 in
23:39 63.8 °F 59.5 °F 29.97 in SW 3.6 mph 6.9 mph 86 % 0.00 in
23:44 63.8 °F 59.5 °F 29.97 in SW 4.7 mph 9.2 mph 86 % 0.00 in
23:49 63.8 °F 59.5 °F 29.97 in WSW 4.0 mph 5.0 mph 86 % 0.00 in
23:54 63.7 °F 59.4 °F 29.97 in SW 3.1 mph 5.8 mph 86 % 0.00 in
23:59 63.6 °F 59.3 °F 29.97 in SSW 2.7 mph 4.6 mph 86 % 0.00 in
Crab Meadow Weather
Compliments of Weather Underground - 2.75 mb

Script developed by  Jim McMurry - jmcmurry@mwt.net Adapted for the template by  Wim van der Kuil - Leuven-Template.eu

Extremes: The greatest annual rainfall in the United States was 184.56 inches at Wynooches, Oxbow, Washington in 1931.